Time;durP1;ratioP1;P1;durP2;ratioP2;P2;SDS_P1;SDS_P2;PMS_P1;PMS_P2;Temp;Humidity;BMP_temperature;BMP_pressure;BME280_temperature;BME280_humidity;BME280_pressure;Samples;Min_cycle;Max_cycle;Signal;HPM_P1;HPM_P2
2022/12/01 00:01:33;;;;;;;;;;;7.10;99.90;;;;;;5088895;28;19978;-85
2022/12/01 00:04:00;;;;;;;;;;;7.10;99.90;;;;;;5067743;28;19935;-85
2022/12/01 00:06:27;;;;;;;;;;;7.00;99.90;;;;;;5091918;28;19936;-85
2022/12/01 00:11:36;;;;;;;;;;;7.00;99.90;;;;;;5050297;28;19928;-86
2022/12/01 00:14:04;;;;;;;;;;;7.00;99.90;;;;;;5091501;28;19936;-86
2022/12/01 00:16:31;;;;;;;;;;;7.30;99.90;;;;;;5089932;28;20078;-85
2022/12/01 00:19:00;;;;;;;;;;;7.00;99.90;;;;;;5071103;28;19958;-85
2022/12/01 00:21:28;;;;;;;;;;;7.00;99.90;;;;;;5074730;28;19987;-84
2022/12/01 00:23:56;;;;;;;;;;;7.10;99.90;;;;;;5088440;28;19973;-83
2022/12/01 00:26:24;;;;;;;;;;;7.10;99.90;;;;;;5068629;28;20388;-84
2022/12/01 00:28:51;;;;;;;;;;;7.10;99.90;;;;;;5084519;28;20332;-84
2022/12/01 00:31:18;;;;;;;;;;;7.10;99.90;;;;;;5086810;28;19943;-85
2022/12/01 00:33:45;;;;;;;;;;;7.00;99.90;;;;;;5091709;28;19924;-82
2022/12/01 00:36:14;;;;;;;;;;;7.00;99.90;;;;;;5085739;28;19932;-83
2022/12/01 00:38:41;;;;;;;;;;;7.00;99.90;;;;;;5086094;28;19932;-83
2022/12/01 00:41:08;;;;;;;;;;;7.00;99.90;;;;;;5088716;28;19924;-83
2022/12/01 00:43:34;;;;;;;;;;;7.10;99.90;;;;;;5089454;28;20871;-84
2022/12/01 00:46:02;;;;;;;;;;;7.10;99.90;;;;;;5068171;28;19932;-85
2022/12/01 00:48:29;;;;;;;;;;;7.10;99.90;;;;;;5074330;28;19927;-85
2022/12/01 00:50:56;;;;;;;;;;;7.10;99.90;;;;;;5071513;28;19932;-85
2022/12/01 00:53:24;;;;;;;;;;;7.10;99.90;;;;;;5070615;28;19932;-83
2022/12/01 00:55:53;;;;;;;;;;;7.00;99.90;;;;;;5086380;28;19951;-85
2022/12/01 00:58:20;;;;;;;;;;;6.90;99.90;;;;;;5067692;28;19955;-83
2022/12/01 01:00:47;;;;;;;;;;;6.90;99.90;;;;;;5088512;28;19932;-82
2022/12/01 01:03:14;;;;;;;;;;;6.90;99.90;;;;;;5084327;28;19924;-82
2022/12/01 01:05:41;;;;;;;;;;;6.90;99.90;;;;;;5085115;28;19943;-81
2022/12/01 01:08:09;;;;;;;;;;;6.90;99.90;;;;;;5068838;28;20006;-83
2022/12/01 01:10:39;;;;;;;;;;;6.90;99.90;;;;;;5089999;28;19936;-82
2022/12/01 01:13:06;;;;;;;;;;;6.90;99.90;;;;;;5069175;28;19963;-82
2022/12/01 01:15:33;;;;;;;;;;;6.80;99.90;;;;;;5066680;28;20330;-83
2022/12/01 01:18:00;;;;;;;;;;;6.80;99.90;;;;;;5066157;28;19946;-81
2022/12/01 01:20:27;;;;;;;;;;;6.80;99.90;;;;;;5068228;28;20484;-82
2022/12/01 01:22:53;;;;;;;;;;;6.80;99.90;;;;;;5086828;28;20394;-83
2022/12/01 01:25:21;;;;;;;;;;;6.80;99.90;;;;;;5066032;28;19932;-83
2022/12/01 01:27:50;;;;;;;;;;;6.80;99.90;;;;;;5087332;28;19951;-83
2022/12/01 01:30:18;;;;;;;;;;;6.80;99.90;;;;;;5066623;28;20841;-81
2022/12/01 01:32:45;;;;;;;;;;;6.90;99.90;;;;;;5070650;28;19927;-82
2022/12/01 01:35:11;;;;;;;;;;;7.00;99.90;;;;;;5083977;28;19932;-82
2022/12/01 01:37:38;;;;;;;;;;;7.00;99.90;;;;;;5080794;28;19962;-82
2022/12/01 01:40:06;;;;;;;;;;;6.90;99.90;;;;;;5067183;28;19965;-82
2022/12/01 01:42:36;;;;;;;;;;;6.90;99.90;;;;;;5082436;28;20034;-82
2022/12/01 01:45:05;;;;;;;;;;;6.90;99.90;;;;;;5077290;28;19942;-79
2022/12/01 01:47:34;;;;;;;;;;;6.90;99.90;;;;;;5064132;28;20310;-80
2022/12/01 01:50:05;;;;;;;;;;;6.90;99.90;;;;;;5066011;28;19940;-79
2022/12/01 01:52:32;;;;;;;;;;;6.70;99.90;;;;;;5069452;28;19944;-79
2022/12/01 01:54:59;;;;;;;;;;;6.80;99.90;;;;;;5065737;28;19924;-79
2022/12/01 01:57:28;;;;;;;;;;;6.80;99.90;;;;;;5071190;28;20199;-81
2022/12/01 01:59:57;;;;;;;;;;;6.70;99.90;;;;;;5070258;28;19928;-78
2022/12/01 02:02:26;;;;;;;;;;;6.70;99.90;;;;;;5070069;28;20411;-81
2022/12/01 02:04:55;;;;;;;;;;;6.70;99.90;;;;;;5071387;28;19967;-80
2022/12/01 02:07:22;;;;;;;;;;;6.70;99.90;;;;;;5083463;28;19979;-79
2022/12/01 02:09:49;;;;;;;;;;;6.70;99.90;;;;;;5082516;28;20391;-80
2022/12/01 02:12:24;;;;;;;;;;;6.70;99.90;;;;;;5084693;28;20400;-80
2022/12/01 02:14:57;;;;;;;;;;;6.70;99.90;;;;;;5065261;28;20015;-80
2022/12/01 02:17:31;;;;;;;;;;;6.70;99.90;;;;;;5065946;28;20345;-81
2022/12/01 02:20:23;;;;;;;;;;;6.70;99.90;;;;;;5085206;28;20660;-80
2022/12/01 02:22:56;;;;;;;;;;;6.80;99.90;;;;;;5066239;28;19936;-81
2022/12/01 02:25:28;;;;;;;;;;;6.80;99.90;;;;;;5068431;28;20015;-80
2022/12/01 02:28:13;;;;;;;;;;;6.80;99.90;;;;;;5068192;28;19928;-80
2022/12/01 02:30:44;;;;;;;;;;;6.70;99.90;;;;;;5056809;28;20396;-78
2022/12/01 02:33:14;;;;;;;;;;;6.80;99.90;;;;;;5063200;28;19924;-79
2022/12/01 02:35:45;;;;;;;;;;;6.80;99.90;;;;;;5064402;28;20323;-79
2022/12/01 02:38:14;;;;;;;;;;;6.80;99.90;;;;;;5061147;28;19983;-79
2022/12/01 02:40:44;;;;;;;;;;;6.80;99.90;;;;;;5062683;28;20360;-79
2022/12/01 02:43:14;;;;;;;;;;;6.80;99.90;;;;;;5059206;28;20499;-79
2022/12/01 02:45:45;;;;;;;;;;;6.90;99.90;;;;;;5065531;28;20304;-79
2022/12/01 02:48:16;;;;;;;;;;;6.80;99.90;;;;;;5067542;28;19987;-79
2022/12/01 02:50:44;;;;;;;;;;;6.80;99.90;;;;;;5058857;28;19998;-79
2022/12/01 02:53:12;;;;;;;;;;;6.80;99.90;;;;;;5065072;28;20479;-79
2022/12/01 02:55:46;;;;;;;;;;;6.80;99.90;;;;;;5060471;28;20034;-79
2022/12/01 02:58:13;;;;;;;;;;;6.80;99.90;;;;;;5066246;28;19931;-78
2022/12/01 03:00:42;;;;;;;;;;;6.90;99.90;;;;;;5063020;28;19983;-80
2022/12/01 03:03:17;;;;;;;;;;;6.90;99.90;;;;;;5065801;28;20391;-79
2022/12/01 03:05:50;;;;;;;;;;;6.90;99.90;;;;;;5081550;28;19999;-79
2022/12/01 03:08:21;;;;;;;;;;;6.90;99.90;;;;;;5062520;28;19924;-79
2022/12/01 03:10:51;;;;;;;;;;;6.90;99.90;;;;;;5065010;28;20000;-79
2022/12/01 03:13:21;;;;;;;;;;;7.00;99.90;;;;;;5082971;28;19932;-79
2022/12/01 03:15:55;;;;;;;;;;;7.00;99.90;;;;;;5069797;28;19999;-79
2022/12/01 03:18:25;;;;;;;;;;;6.90;99.90;;;;;;5078028;28;19940;-79
2022/12/01 03:20:56;;;;;;;;;;;6.90;99.90;;;;;;5079348;28;19964;-79
2022/12/01 03:23:25;;;;;;;;;;;6.90;99.90;;;;;;5062668;28;21379;-79
2022/12/01 03:25:54;;;;;;;;;;;6.90;99.90;;;;;;5062511;28;19950;-78
2022/12/01 03:28:27;;;;;;;;;;;6.80;99.90;;;;;;5062216;28;19951;-79
2022/12/01 03:31:01;;;;;;;;;;;6.80;99.90;;;;;;5061971;28;19931;-78
2022/12/01 03:33:31;;;;;;;;;;;6.80;99.90;;;;;;5069677;28;19924;-78
2022/12/01 03:36:01;;;;;;;;;;;6.80;99.90;;;;;;5059623;28;20366;-79
2022/12/01 03:38:29;;;;;;;;;;;6.90;99.90;;;;;;5071200;28;19931;-79
2022/12/01 03:40:58;;;;;;;;;;;6.90;99.90;;;;;;5058817;28;19939;-78
2022/12/01 03:43:28;;;;;;;;;;;7.10;99.90;;;;;;5066193;28;20087;-79
2022/12/01 03:45:56;;;;;;;;;;;6.90;99.90;;;;;;5062955;28;19963;-79
2022/12/01 03:48:25;;;;;;;;;;;6.90;99.90;;;;;;5062541;28;19971;-79
2022/12/01 03:50:55;;;;;;;;;;;6.80;99.90;;;;;;5084153;28;20501;-79
2022/12/01 03:53:23;;;;;;;;;;;6.90;99.90;;;;;;5059614;28;19928;-81
2022/12/01 03:55:53;;;;;;;;;;;6.90;99.90;;;;;;5084889;28;20030;-80
2022/12/01 03:58:22;;;;;;;;;;;6.90;99.90;;;;;;5082477;28;20275;-79
2022/12/01 04:00:54;;;;;;;;;;;6.90;99.90;;;;;;5063309;28;20402;-79
2022/12/01 04:03:24;;;;;;;;;;;6.90;99.90;;;;;;5061114;28;19958;-77
2022/12/01 04:05:52;;;;;;;;;;;6.90;99.90;;;;;;5078944;28;20823;-78
2022/12/01 04:08:19;;;;;;;;;;;6.90;99.90;;;;;;5081064;28;19928;-83
2022/12/01 04:10:46;;;;;;;;;;;6.90;99.90;;;;;;5062715;28;20264;-79
2022/12/01 04:13:21;;;;;;;;;;;6.90;99.90;;;;;;5078450;28;20016;-80
2022/12/01 04:15:49;;;;;;;;;;;6.90;99.90;;;;;;5058244;28;19920;-79
2022/12/01 04:18:16;;;;;;;;;;;6.90;99.90;;;;;;5079140;28;19932;-79
2022/12/01 04:20:43;;;;;;;;;;;6.90;99.90;;;;;;5064134;28;19924;-82
2022/12/01 04:23:58;;;;;;;;;;;6.90;99.90;;;;;;5059983;28;19924;-79
2022/12/01 04:25:58;;;;;;;;;;;6.90;99.90;;;;;;5062173;28;19933;-79
2022/12/01 04:28:28;;;;;;;;;;;6.80;99.90;;;;;;5068818;28;19934;-81
2022/12/01 04:30:55;;;;;;;;;;;6.80;99.90;;;;;;5061270;28;19986;-80
2022/12/01 04:33:23;;;;;;;;;;;6.90;99.90;;;;;;5062122;28;19990;-79
2022/12/01 04:35:56;;;;;;;;;;;6.90;99.90;;;;;;5064289;28;20043;-81
2022/12/01 04:38:24;;;;;;;;;;;6.80;99.90;;;;;;5062200;28;19932;-78
2022/12/01 04:40:51;;;;;;;;;;;6.80;99.90;;;;;;5063761;28;19946;-79
2022/12/01 04:43:18;;;;;;;;;;;6.80;99.90;;;;;;5082460;28;20027;-81
2022/12/01 04:45:46;;;;;;;;;;;6.80;99.90;;;;;;5072627;28;19932;-80
2022/12/01 04:48:13;;;;;;;;;;;6.80;99.90;;;;;;5064185;28;19935;-80
2022/12/01 04:50:41;;;;;;;;;;;6.80;99.90;;;;;;5065704;28;19959;-82
2022/12/01 04:53:08;;;;;;;;;;;6.80;99.90;;;;;;5071542;28;19985;-81
2022/12/01 04:55:38;;;;;;;;;;;6.90;99.90;;;;;;5064732;28;19924;-79
2022/12/01 04:58:06;;;;;;;;;;;6.80;99.90;;;;;;5084574;28;20014;-79
2022/12/01 05:00:33;;;;;;;;;;;6.80;99.90;;;;;;5066664;28;19932;-81
2022/12/01 05:03:02;;;;;;;;;;;6.70;99.90;;;;;;5065476;28;19968;-79
2022/12/01 05:05:30;;;;;;;;;;;6.70;99.90;;;;;;5068436;28;19959;-82
2022/12/01 05:07:58;;;;;;;;;;;6.70;99.90;;;;;;5067032;28;19943;-84
2022/12/01 05:10:25;;;;;;;;;;;6.80;99.90;;;;;;5086527;28;19979;-84
2022/12/01 05:12:56;;;;;;;;;;;6.70;99.90;;;;;;5086928;28;20886;-84
2022/12/01 05:15:24;;;;;;;;;;;6.70;99.90;;;;;;5065222;28;20011;-83
2022/12/01 05:17:51;;;;;;;;;;;6.80;99.90;;;;;;5059018;28;19924;-78
2022/12/01 05:23:06;;;;;;;;;;;6.80;99.90;;;;;;5083926;28;20359;-81
2022/12/01 05:25:33;;;;;;;;;;;6.70;99.90;;;;;;5066709;28;19935;-80
2022/12/01 05:28:02;;;;;;;;;;;6.70;99.90;;;;;;5081632;28;19932;-80
2022/12/01 05:30:29;;;;;;;;;;;6.80;99.90;;;;;;5067819;28;19937;-81
2022/12/01 05:32:56;;;;;;;;;;;6.70;99.90;;;;;;5063712;28;19929;-82
2022/12/01 05:35:23;;;;;;;;;;;6.70;99.90;;;;;;5081038;28;19978;-80
2022/12/01 05:37:50;;;;;;;;;;;6.70;99.90;;;;;;5061252;28;19962;-80
2022/12/01 05:40:17;;;;;;;;;;;6.80;99.90;;;;;;5084739;28;19928;-79
2022/12/01 05:42:43;;;;;;;;;;;6.70;99.90;;;;;;5075606;28;19944;-80
2022/12/01 05:45:12;;;;;;;;;;;6.70;99.90;;;;;;5072097;28;19938;-83
2022/12/01 05:47:39;;;;;;;;;;;6.70;99.90;;;;;;5095327;28;20349;-80
2022/12/01 05:50:06;;;;;;;;;;;6.70;99.90;;;;;;5068164;28;20098;-79
2022/12/01 05:52:34;;;;;;;;;;;6.60;99.90;;;;;;5065822;28;19987;-79
2022/12/01 05:55:01;;;;;;;;;;;6.60;99.90;;;;;;5087634;28;19962;-79
2022/12/01 05:57:28;;;;;;;;;;;6.60;99.90;;;;;;5073267;28;20273;-79
2022/12/01 05:59:55;;;;;;;;;;;6.60;99.90;;;;;;5060051;28;20710;-78
2022/12/01 06:02:25;;;;;;;;;;;6.60;99.90;;;;;;5091416;28;19928;-79
2022/12/01 06:04:52;;;;;;;;;;;6.60;99.90;;;;;;5084312;28;19924;-81
2022/12/01 06:07:19;;;;;;;;;;;6.70;99.90;;;;;;5074571;28;19936;-80
2022/12/01 06:09:46;;;;;;;;;;;6.70;99.90;;;;;;5073108;28;20045;-78
2022/12/01 06:12:13;;;;;;;;;;;6.80;99.90;;;;;;5083377;28;20042;-79
2022/12/01 06:14:40;;;;;;;;;;;6.80;99.90;;;;;;5058758;28;20356;-79
2022/12/01 06:17:07;;;;;;;;;;;6.80;99.90;;;;;;5078129;28;19928;-79
2022/12/01 06:19:35;;;;;;;;;;;6.80;99.90;;;;;;5072151;28;19974;-80
2022/12/01 06:22:03;;;;;;;;;;;6.80;99.90;;;;;;5060771;28;19935;-78
2022/12/01 06:24:30;;;;;;;;;;;6.80;99.90;;;;;;5069908;28;19958;-79
2022/12/01 06:26:57;;;;;;;;;;;6.80;99.90;;;;;;5061730;28;19924;-81
2022/12/01 06:29:24;;;;;;;;;;;6.80;99.90;;;;;;5087112;28;19999;-81
2022/12/01 06:31:51;;;;;;;;;;;6.80;99.90;;;;;;5098636;28;19989;-81
2022/12/01 06:34:17;;;;;;;;;;;6.80;99.90;;;;;;5078008;28;19935;-81
2022/12/01 06:36:46;;;;;;;;;;;6.80;99.90;;;;;;5078998;28;20438;-84
2022/12/01 06:39:14;;;;;;;;;;;6.80;99.90;;;;;;5091914;28;19935;-84
2022/12/01 06:41:42;;;;;;;;;;;6.80;99.90;;;;;;5086493;28;19995;-84
2022/12/01 06:44:10;;;;;;;;;;;6.80;99.90;;;;;;5077618;28;19924;-84
2022/12/01 06:46:37;;;;;;;;;;;6.80;99.90;;;;;;5077204;28;19969;-85
2022/12/01 06:49:04;;;;;;;;;;;6.80;99.90;;;;;;5092600;28;19994;-85
2022/12/01 06:51:33;;;;;;;;;;;6.80;99.90;;;;;;5080420;28;20556;-85
2022/12/01 06:54:04;;;;;;;;;;;6.80;99.90;;;;;;5095252;28;20326;-84
2022/12/01 06:56:31;;;;;;;;;;;6.80;99.90;;;;;;5076224;28;19936;-85
2022/12/01 06:59:01;;;;;;;;;;;6.70;99.90;;;;;;5069456;28;19928;-85
2022/12/01 07:01:28;;;;;;;;;;;6.70;99.90;;;;;;5089561;28;20333;-84
2022/12/01 07:03:55;;;;;;;;;;;6.70;99.90;;;;;;5081210;28;20023;-85
2022/12/01 07:06:22;;;;;;;;;;;6.70;99.90;;;;;;5075192;28;20154;-85
2022/12/01 07:08:49;;;;;;;;;;;6.70;99.90;;;;;;5082586;28;20019;-84
2022/12/01 07:11:17;;;;;;;;;;;6.70;99.90;;;;;;5070242;28;19951;-85
2022/12/01 07:13:45;;;;;;;;;;;6.70;99.90;;;;;;5098715;28;19954;-85
2022/12/01 07:16:12;;;;;;;;;;;6.70;99.90;;;;;;5065668;28;20351;-85
2022/12/01 07:18:39;;;;;;;;;;;6.70;99.90;;;;;;5075617;28;20380;-85
2022/12/01 07:21:07;;;;;;;;;;;6.70;99.90;;;;;;5082770;28;19928;-85
2022/12/01 07:23:35;;;;;;;;;;;6.80;99.90;;;;;;5075615;28;20386;-82
2022/12/01 07:26:02;;;;;;;;;;;6.80;99.90;;;;;;5092394;28;19934;-85
2022/12/01 07:28:31;;;;;;;;;;;6.80;99.90;;;;;;5088315;28;19928;-84
2022/12/01 07:31:02;;;;;;;;;;;6.80;99.90;;;;;;5077345;28;20419;-82
2022/12/01 07:33:32;;;;;;;;;;;6.80;99.90;;;;;;5071671;28;19956;-82
2022/12/01 07:35:59;;;;;;;;;;;6.80;99.90;;;;;;5083532;28;19928;-82
2022/12/01 07:38:27;;;;;;;;;;;6.70;99.90;;;;;;5074962;28;19928;-82
2022/12/01 07:40:54;;;;;;;;;;;6.70;99.90;;;;;;5096211;28;19959;-81
2022/12/01 07:43:21;;;;;;;;;;;6.70;99.90;;;;;;5076096;28;19938;-81
2022/12/01 07:45:50;;;;;;;;;;;6.80;99.90;;;;;;5095822;28;19969;-81
2022/12/01 07:48:17;;;;;;;;;;;6.80;99.90;;;;;;5073467;28;20371;-81
2022/12/01 07:50:44;;;;;;;;;;;6.80;99.90;;;;;;5095788;28;19954;-82
2022/12/01 07:53:11;;;;;;;;;;;6.80;99.90;;;;;;5079111;28;20232;-82
2022/12/01 07:55:39;;;;;;;;;;;6.80;99.90;;;;;;5086337;28;20420;-81
2022/12/01 07:58:06;;;;;;;;;;;6.70;99.90;;;;;;5076212;28;19976;-82
2022/12/01 08:00:33;;;;;;;;;;;6.80;99.90;;;;;;5077193;28;19924;-81
2022/12/01 08:03:01;;;;;;;;;;;6.80;99.90;;;;;;5095716;28;19950;-81
2022/12/01 08:05:28;;;;;;;;;;;5.50;99.90;;;;;;5090890;28;20037;-80
2022/12/01 08:07:55;;;;;;;;;;;6.90;99.90;;;;;;5073157;28;19928;-81
2022/12/01 08:10:22;;;;;;;;;;;7.50;99.90;;;;;;5088465;28;19997;-81
2022/12/01 08:12:49;;;;;;;;;;;7.00;99.90;;;;;;5073391;28;19995;-81
2022/12/01 08:15:16;;;;;;;;;;;7.00;99.90;;;;;;5069140;28;19947;-81
2022/12/01 08:17:44;;;;;;;;;;;7.00;99.90;;;;;;5071984;28;19986;-82
2022/12/01 08:20:14;;;;;;;;;;;7.10;99.90;;;;;;5094275;28;19934;-81
2022/12/01 08:22:41;;;;;;;;;;;7.10;99.90;;;;;;5078232;28;19940;-81
2022/12/01 08:25:09;;;;;;;;;;;7.20;99.90;;;;;;5078441;28;19992;-81
2022/12/01 08:27:35;;;;;;;;;;;7.20;99.90;;;;;;5067134;28;19941;-81
2022/12/01 08:30:02;;;;;;;;;;;7.20;99.90;;;;;;5084359;28;20030;-82
2022/12/01 08:32:29;;;;;;;;;;;7.20;99.90;;;;;;5099979;28;20351;-81
2022/12/01 08:34:56;;;;;;;;;;;7.20;99.90;;;;;;5078262;28;19924;-81
2022/12/01 08:37:25;;;;;;;;;;;7.20;99.90;;;;;;5096953;28;19928;-82
2022/12/01 08:39:52;;;;;;;;;;;7.20;99.90;;;;;;5070430;28;20054;-82
2022/12/01 08:42:19;;;;;;;;;;;8.50;99.90;;;;;;5082774;28;20046;-80
2022/12/01 08:44:46;;;;;;;;;;;7.30;99.90;;;;;;5082159;28;19991;-82
2022/12/01 08:47:13;;;;;;;;;;;7.30;99.90;;;;;;5067131;28;19929;-82
2022/12/01 08:49:40;;;;;;;;;;;7.20;99.90;;;;;;5077707;28;19936;-82
2022/12/01 08:52:08;;;;;;;;;;;7.20;99.90;;;;;;5077146;28;19928;-81
2022/12/01 08:54:36;;;;;;;;;;;7.30;99.90;;;;;;5078798;28;19959;-82
2022/12/01 08:57:03;;;;;;;;;;;7.30;99.90;;;;;;5081491;28;19959;-82
2022/12/01 08:59:30;;;;;;;;;;;7.30;99.90;;;;;;5097194;28;20319;-82
2022/12/01 09:01:57;;;;;;;;;;;7.30;99.90;;;;;;5086475;28;19997;-81
2022/12/01 09:04:25;;;;;;;;;;;7.30;99.90;;;;;;5088631;28;20012;-81
2022/12/01 09:06:53;;;;;;;;;;;7.30;99.90;;;;;;5084317;28;19912;-80
2022/12/01 09:09:22;;;;;;;;;;;7.20;99.90;;;;;;5084927;28;19924;-80
2022/12/01 09:11:52;;;;;;;;;;;7.30;99.90;;;;;;5093081;28;19935;-81
2022/12/01 09:14:20;;;;;;;;;;;7.30;99.90;;;;;;5069298;28;19934;-83
2022/12/01 09:16:48;;;;;;;;;;;7.20;99.90;;;;;;5072981;28;20096;-83
2022/12/01 09:19:16;;;;;;;;;;;7.20;99.90;;;;;;5068071;28;19986;-82
2022/12/01 09:21:44;;;;;;;;;;;7.30;99.90;;;;;;5090544;28;20422;-82
2022/12/01 09:24:11;;;;;;;;;;;7.30;99.90;;;;;;5079164;28;20073;-81
2022/12/01 09:26:38;;;;;;;;;;;7.30;99.90;;;;;;5095910;28;19935;-82
2022/12/01 09:29:08;;;;;;;;;;;7.30;99.90;;;;;;5097070;28;19967;-82
2022/12/01 09:31:35;;;;;;;;;;;7.40;99.90;;;;;;5066121;28;20379;-82
2022/12/01 09:34:04;;;;;;;;;;;7.40;99.90;;;;;;5087164;28;19929;-82
2022/12/01 09:36:32;;;;;;;;;;;8.40;99.90;;;;;;5073946;28;19947;-82
2022/12/01 09:38:59;;;;;;;;;;;7.30;99.90;;;;;;5079809;28;19935;-81
2022/12/01 09:41:27;;;;;;;;;;;7.30;99.90;;;;;;5088241;28;20373;-81
2022/12/01 09:43:58;;;;;;;;;;;7.20;99.90;;;;;;5084424;28;20000;-80
2022/12/01 09:46:30;;;;;;;;;;;7.20;99.90;;;;;;5089732;28;19928;-82
2022/12/01 09:48:58;;;;;;;;;;;7.20;99.90;;;;;;5071549;28;19928;-80
2022/12/01 09:51:26;;;;;;;;;;;7.20;99.90;;;;;;5093515;28;20407;-81
2022/12/01 09:53:55;;;;;;;;;;;7.30;99.90;;;;;;5071125;28;19947;-80
2022/12/01 09:56:23;;;;;;;;;;;7.30;99.90;;;;;;5077012;28;19954;-81
2022/12/01 09:58:52;;;;;;;;;;;7.40;99.90;;;;;;5065408;28;19979;-81
2022/12/01 10:01:19;;;;;;;;;;;7.40;99.90;;;;;;5068693;28;19935;-80
2022/12/01 10:03:50;;;;;;;;;;;7.50;99.90;;;;;;5084839;28;20305;-80
2022/12/01 10:06:20;;;;;;;;;;;7.50;99.90;;;;;;5070154;28;20007;-81
2022/12/01 10:08:49;;;;;;;;;;;7.60;99.90;;;;;;5072598;28;19934;-81
2022/12/01 10:11:19;;;;;;;;;;;7.70;99.90;;;;;;5058303;28;19925;-80
2022/12/01 10:13:46;;;;;;;;;;;7.60;99.90;;;;;;5065995;28;19928;-81
2022/12/01 10:16:15;;;;;;;;;;;7.60;99.90;;;;;;5073713;28;19924;-80
2022/12/01 10:18:49;;;;;;;;;;;7.60;99.90;;;;;;5097040;28;19928;-82
2022/12/01 10:21:22;;;;;;;;;;;7.60;99.90;;;;;;5076376;28;19938;-80
2022/12/01 10:23:57;;;;;;;;;;;7.60;99.90;;;;;;5092780;28;20656;-81
2022/12/01 10:26:27;;;;;;;;;;;7.60;99.90;;;;;;5074017;28;19931;-80
2022/12/01 10:29:01;;;;;;;;;;;7.50;99.90;;;;;;5071828;28;20012;-79
2022/12/01 10:31:33;;;;;;;;;;;7.50;99.90;;;;;;5071621;28;19932;-80
2022/12/01 10:34:03;;;;;;;;;;;7.40;99.90;;;;;;5075991;28;19935;-80
2022/12/01 10:36:31;;;;;;;;;;;7.40;99.90;;;;;;5079076;28;19928;-80
2022/12/01 10:38:59;;;;;;;;;;;7.40;99.90;;;;;;5092563;28;20038;-81
2022/12/01 10:41:27;;;;;;;;;;;7.50;99.90;;;;;;5094907;28;19928;-81
2022/12/01 10:43:59;;;;;;;;;;;7.50;99.90;;;;;;5090253;28;20036;-81
2022/12/01 10:46:28;;;;;;;;;;;7.40;99.90;;;;;;5080006;28;20712;-81
2022/12/01 10:48:56;;;;;;;;;;;7.40;99.90;;;;;;5056909;28;20041;-81
2022/12/01 10:51:25;;;;;;;;;;;7.40;99.90;;;;;;5067131;28;19962;-81
2022/12/01 10:53:58;;;;;;;;;;;7.30;99.90;;;;;;5076485;28;19976;-81
2022/12/01 10:56:25;;;;;;;;;;;6.90;99.90;;;;;;5086074;28;19928;-81
2022/12/01 10:58:53;;;;;;;;;;;7.30;99.90;;;;;;5078543;28;20016;-82
2022/12/01 11:01:23;;;;;;;;;;;7.30;99.90;;;;;;5075472;28;19924;-80
2022/12/01 11:03:52;;;;;;;;;;;7.20;99.90;;;;;;5081523;28;20009;-80
2022/12/01 11:06:21;;;;;;;;;;;7.20;99.90;;;;;;5074003;28;19935;-80
2022/12/01 11:08:53;;;;;;;;;;;7.20;99.90;;;;;;5075938;28;20034;-80
2022/12/01 11:11:23;;;;;;;;;;;7.20;99.90;;;;;;5073442;28;19936;-82
2022/12/01 11:13:50;;;;;;;;;;;7.20;99.90;;;;;;5063984;28;19974;-81
2022/12/01 11:16:33;;;;;;;;;;;7.10;99.90;;;;;;5066046;28;19974;-82
2022/12/01 11:19:07;;;;;;;;;;;7.00;99.90;;;;;;5075834;28;20380;-80
2022/12/01 11:21:34;;;;;;;;;;;7.10;99.90;;;;;;5089952;28;19928;-82
2022/12/01 11:24:15;;;;;;;;;;;7.10;99.90;;;;;;5087863;28;19928;-81
2022/12/01 11:26:42;;;;;;;;;;;7.10;99.90;;;;;;5062230;28;19982;-80
2022/12/01 11:29:26;;;;;;;;;;;7.00;99.90;;;;;;5064852;28;19928;-81
2022/12/01 11:31:53;;;;;;;;;;;7.10;99.90;;;;;;5059832;28;20418;-82
2022/12/01 11:34:21;;;;;;;;;;;7.10;99.90;;;;;;5071222;28;19924;-80
2022/12/01 11:36:51;;;;;;;;;;;7.20;99.90;;;;;;5076038;28;19946;-80
2022/12/01 11:39:23;;;;;;;;;;;7.20;99.90;;;;;;5081092;28;19984;-80
2022/12/01 11:41:55;;;;;;;;;;;7.20;99.90;;;;;;5079330;28;20007;-80
2022/12/01 11:44:22;;;;;;;;;;;7.20;99.90;;;;;;5074107;28;20027;-81
2022/12/01 11:46:49;;;;;;;;;;;7.30;99.90;;;;;;5085467;28;19944;-80
2022/12/01 11:49:17;;;;;;;;;;;7.40;99.90;;;;;;5091393;28;19928;-81
2022/12/01 11:51:44;;;;;;;;;;;7.50;99.90;;;;;;5079427;28;19928;-79
2022/12/01 11:54:16;;;;;;;;;;;7.60;99.90;;;;;;5094703;28;20560;-82
2022/12/01 11:56:45;;;;;;;;;;;7.70;99.90;;;;;;5066956;28;19959;-80
2022/12/01 11:59:14;;;;;;;;;;;8.00;99.90;;;;;;5097580;28;19924;-80
2022/12/01 12:01:46;;;;;;;;;;;8.00;99.90;;;;;;5078013;28;20363;-80
2022/12/01 12:04:22;;;;;;;;;;;8.10;99.90;;;;;;5071493;28;19929;-80
2022/12/01 12:06:55;;;;;;;;;;;8.20;99.90;;;;;;5080109;28;19928;-80
2022/12/01 12:09:35;;;;;;;;;;;8.30;99.90;;;;;;5079852;28;19924;-81
2022/12/01 12:12:10;;;;;;;;;;;8.30;99.90;;;;;;5066588;28;19966;-80
2022/12/01 12:14:47;;;;;;;;;;;8.30;99.90;;;;;;5081003;28;20398;-80
2022/12/01 12:17:29;;;;;;;;;;;8.40;99.90;;;;;;5099096;28;20014;-80
2022/12/01 12:20:01;;;;;;;;;;;8.40;99.90;;;;;;5071822;28;19996;-81
2022/12/01 12:22:32;;;;;;;;;;;8.40;99.90;;;;;;5079589;28;20015;-81
2022/12/01 12:25:05;;;;;;;;;;;8.50;99.90;;;;;;5097904;28;19984;-80
2022/12/01 12:27:39;;;;;;;;;;;8.50;99.90;;;;;;5097818;28;19931;-80
2022/12/01 12:30:12;;;;;;;;;;;8.30;99.90;;;;;;5091342;28;20389;-80
2022/12/01 12:32:52;;;;;;;;;;;8.30;99.90;;;;;;5102045;28;19946;-80
2022/12/01 12:35:27;;;;;;;;;;;8.30;99.90;;;;;;5074364;28;19924;-80
2022/12/01 12:38:00;;;;;;;;;;;8.30;99.90;;;;;;5079700;28;19966;-79
2022/12/01 12:40:35;;;;;;;;;;;8.30;99.90;;;;;;5063158;28;19947;-80
2022/12/01 12:43:09;;;;;;;;;;;8.20;99.90;;;;;;5067710;28;19928;-80
2022/12/01 12:45:42;;;;;;;;;;;8.10;99.90;;;;;;5071082;28;20399;-79
2022/12/01 12:48:16;;;;;;;;;;;8.20;99.90;;;;;;5096470;28;20007;-81
2022/12/01 12:50:48;;;;;;;;;;;8.10;99.90;;;;;;5092110;28;19978;-79
2022/12/01 12:53:18;;;;;;;;;;;8.10;99.90;;;;;;5073251;28;19998;-80
2022/12/01 12:55:46;;;;;;;;;;;8.10;99.90;;;;;;5074483;28;19981;-80
2022/12/01 12:58:18;;;;;;;;;;;8.00;99.90;;;;;;5090485;28;19933;-80
2022/12/01 13:00:48;;;;;;;;;;;8.00;99.90;;;;;;5077276;28;19924;-80
2022/12/01 13:03:17;;;;;;;;;;;8.00;99.90;;;;;;5070496;28;19935;-80
2022/12/01 13:05:48;;;;;;;;;;;8.00;99.90;;;;;;5076110;28;19928;-80
2022/12/01 13:08:16;;;;;;;;;;;8.00;99.90;;;;;;5095239;28;20530;-80
2022/12/01 13:10:46;;;;;;;;;;;8.00;99.90;;;;;;5093850;28;19929;-81
2022/12/01 13:13:18;;;;;;;;;;;7.90;99.90;;;;;;5075400;28;19940;-80
2022/12/01 13:15:46;;;;;;;;;;;8.00;99.90;;;;;;5068798;28;19939;-81
2022/12/01 13:18:20;;;;;;;;;;;8.00;99.90;;;;;;5065016;28;19935;-80
2022/12/01 13:20:47;;;;;;;;;;;8.00;99.90;;;;;;5074748;28;19951;-80
2022/12/01 13:23:16;;;;;;;;;;;8.10;99.90;;;;;;5096398;28;19924;-80
2022/12/01 13:25:44;;;;;;;;;;;8.20;99.90;;;;;;5097567;28;19931;-79
2022/12/01 13:28:15;;;;;;;;;;;8.20;99.90;;;;;;5077179;28;20341;-81
2022/12/01 13:30:57;;;;;;;;;;;8.10;99.90;;;;;;5080063;28;19928;-80
2022/12/01 13:33:23;;;;;;;;;;;8.10;99.90;;;;;;5072006;28;19925;-81
2022/12/01 13:35:52;;;;;;;;;;;8.00;99.90;;;;;;5094833;28;19995;-80
2022/12/01 13:38:21;;;;;;;;;;;8.00;99.90;;;;;;5074156;28;20510;-82
2022/12/01 13:40:49;;;;;;;;;;;8.00;99.90;;;;;;5081833;28;19924;-81
2022/12/01 13:43:18;;;;;;;;;;;8.00;99.90;;;;;;5071611;28;20023;-81
2022/12/01 13:45:48;;;;;;;;;;;8.00;99.90;;;;;;5078452;28;20409;-81
2022/12/01 13:48:27;;;;;;;;;;;8.00;99.90;;;;;;5072617;28;20323;-80
2022/12/01 13:50:58;;;;;;;;;;;8.00;99.90;;;;;;5078339;28;19931;-79
2022/12/01 13:53:27;;;;;;;;;;;8.00;99.90;;;;;;5077216;28;19955;-80
2022/12/01 13:55:58;;;;;;;;;;;8.00;99.90;;;;;;5094200;28;19933;-81
2022/12/01 13:58:40;;;;;;;;;;;7.90;99.90;;;;;;5084232;28;19924;-80
2022/12/01 14:01:25;;;;;;;;;;;7.90;99.90;;;;;;5069297;28;19932;-80
2022/12/01 14:03:54;;;;;;;;;;;7.80;99.90;;;;;;5067176;28;19931;-80
2022/12/01 14:06:25;;;;;;;;;;;7.80;99.90;;;;;;5069521;28;19928;-81
2022/12/01 14:08:55;;;;;;;;;;;7.80;99.90;;;;;;5071412;28;19931;-81
2022/12/01 14:11:23;;;;;;;;;;;7.70;99.90;;;;;;5072682;28;19932;-80
2022/12/01 14:13:52;;;;;;;;;;;7.70;99.90;;;;;;5088164;28;19932;-80
2022/12/01 14:16:18;;;;;;;;;;;7.70;99.90;;;;;;5079173;28;19925;-80
2022/12/01 14:18:49;;;;;;;;;;;7.70;99.90;;;;;;5094775;28;19928;-79
2022/12/01 14:21:37;;;;;;;;;;;7.60;99.90;;;;;;5082972;28;20406;-79
2022/12/01 14:24:07;;;;;;;;;;;8.50;99.90;;;;;;5070776;28;19940;-82
2022/12/01 14:26:43;;;;;;;;;;;7.60;99.90;;;;;;5068574;28;19967;-81
2022/12/01 14:29:23;;;;;;;;;;;7.50;99.90;;;;;;5068936;28;20384;-80
2022/12/01 14:32:21;;;;;;;;;;;7.60;99.90;;;;;;5063496;28;19940;-81
2022/12/01 14:35:06;;;;;;;;;;;7.60;99.90;;;;;;5066894;28;19932;-80
2022/12/01 14:37:40;;;;;;;;;;;7.60;99.90;;;;;;5085824;28;20364;-82
2022/12/01 14:40:12;;;;;;;;;;;7.60;99.90;;;;;;5083253;28;20005;-81
2022/12/01 14:45:26;;;;;;;;;;;7.50;99.90;;;;;;5078018;28;19924;-80
2022/12/01 14:47:57;;;;;;;;;;;7.50;99.90;;;;;;5067980;28;19934;-80
2022/12/01 14:50:28;;;;;;;;;;;7.50;99.90;;;;;;5067999;28;19935;-80
2022/12/01 14:52:58;;;;;;;;;;;7.50;99.90;;;;;;5064553;28;20618;-80